Turbat Weather



Turbat's Current Weather

Temprature 25.79o few clouds

few clouds

Rain: 0 %

Min Temprature25.79o
Max Temprature25.79o
Humidity76
Wind Speed1.94 m/h
Sun Rise06:37:49
Sun Set18:40:43
Current Time: 26-Sep-2022 07:51:16
Lat/Lon: 26.0023, 63.044




Turbat's Geo Location



Turbat's Weather Forecast

Time Overall Temp Min Temp Max Temp Humidity Wind Speed Rain
26-Sep-2022 (Mon)
08:00:00 few clouds 25.790 25.790 25.790 76 1.94 m/h 0 %
11:00:00 few clouds 27.270 27.270 30.240 67 1.96 m/h 0 %
14:00:00 clear sky 31.680 31.680 34.630 47 2.9 m/h 0 %
17:00:00 clear sky 35.930 35.930 35.930 29 6.02 m/h 0 %
20:00:00 clear sky 28.750 28.750 28.750 61 5.22 m/h 0 %
23:00:00 clear sky 27.590 27.590 27.590 65 3.47 m/h 0 %
27-Sep-2022 (Tue)
02:00:00 clear sky 26.560 26.560 26.560 73 1.88 m/h 0 %
05:00:00 clear sky 25.700 25.700 25.700 78 2.49 m/h 0 %
08:00:00 clear sky 26.070 26.070 26.070 76 1.6 m/h 0 %
11:00:00 clear sky 32.350 32.350 32.350 37 2.14 m/h 0 %
14:00:00 clear sky 36.000 36.000 36.000 27 5.17 m/h 0 %
17:00:00 clear sky 36.240 36.240 36.240 27 6.66 m/h 0 %
20:00:00 clear sky 30.120 30.120 30.120 53 7.44 m/h 0 %
23:00:00 clear sky 27.550 27.550 27.550 65 5.74 m/h 0 %
28-Sep-2022 (Wed)
02:00:00 clear sky 26.030 26.030 26.030 75 3.68 m/h 0 %
05:00:00 clear sky 24.860 24.860 24.860 83 1.9 m/h 0 %
08:00:00 broken clouds 25.040 25.040 25.040 82 1.57 m/h 0 %
11:00:00 scattered clouds 29.840 29.840 29.840 54 2.19 m/h 0 %
14:00:00 clear sky 34.790 34.790 34.790 31 3.59 m/h 0 %
17:00:00 clear sky 35.520 35.520 35.520 29 6.13 m/h 0 %
20:00:00 clear sky 27.650 27.650 27.650 67 5.72 m/h 0 %
23:00:00 clear sky 26.580 26.580 26.580 71 3.01 m/h 0 %
29-Sep-2022 (Thu)
02:00:00 clear sky 25.690 25.690 25.690 76 2.45 m/h 0 %
05:00:00 clear sky 24.890 24.890 24.890 81 1.39 m/h 0 %
08:00:00 few clouds 25.010 25.010 25.010 81 1.68 m/h 0 %
11:00:00 scattered clouds 29.490 29.490 29.490 57 2.64 m/h 0 %
14:00:00 clear sky 34.390 34.390 34.390 34 3.58 m/h 0 %
17:00:00 clear sky 35.090 35.090 35.090 30 5.84 m/h 0 %
20:00:00 clear sky 27.280 27.280 27.280 65 5.52 m/h 0 %
23:00:00 clear sky 26.480 26.480 26.480 69 3.48 m/h 0 %
30-Sep-2022 (Fri)
02:00:00 clear sky 25.630 25.630 25.630 73 2.88 m/h 0 %
05:00:00 clear sky 24.870 24.870 24.870 79 2.08 m/h 0 %
08:00:00 few clouds 25.020 25.020 25.020 79 2 m/h 0 %
11:00:00 few clouds 29.670 29.670 29.670 56 3.51 m/h 0 %
14:00:00 clear sky 34.000 34.000 34.000 39 4.54 m/h 0 %
17:00:00 clear sky 34.800 34.800 34.800 35 5.8 m/h 0 %
20:00:00 clear sky 28.590 28.590 28.590 59 5.69 m/h 0 %
23:00:00 clear sky 27.040 27.040 27.040 66 5.26 m/h 0 %
01-Oct-2022 (Sat)
02:00:00 clear sky 25.710 25.710 25.710 73 3.71 m/h 0 %
05:00:00 clear sky 24.750 24.750 24.750 81 3.03 m/h 0 %

Famous Cities (61)